Buoy 45509

sailwx.info

Track history (hours):
 
Tides and Currents Weather Stations Pressure Air Temp Water Temp Dewpoint Dewpoint Depression Visibility Wind Speed Wind Dir Waves Ship Positions

Drifting buoy 45509

Last reported at 2017-Sep-29 17:00 UTC. Time now 2017-Oct-17 04:06 UTC.
Position N 44°32' W 087°59'.
Warning: this ship's position is 17 days out of date.

Barometer 1003.2 mb
Water temperature 17.0 ° C

Date/timePositionNaut miles runAvg speedWind from/ knotsBaromVisibWave heightAir tempDewpointWater temp
2017-Sep-29 17:00N 44°32' W 087°59'0 0.0 1003.2 17.0
2017-Sep-29 16:30N 44°32' W 087°59'0 0.0 1003.0 16.6
2017-Sep-29 16:00N 44°32' W 087°59'0 0.0 1002.8 16.2
2017-Sep-29 15:30N 44°32' W 087°59'0 0.0 1002.6 16.0
2017-Sep-29 15:00N 44°32' W 087°59'0 0.0 1002.4 15.8
2017-Sep-29 14:30N 44°32' W 087°59'0 0.0 1002.1 15.6
2017-Sep-29 14:00N 44°32' W 087°59'0 0.0 1001.9 15.4
2017-Sep-29 13:30N 44°32' W 087°59'0 0.0 1001.4 15.3
2017-Sep-29 13:00N 44°32' W 087°59'0 0.0 1000.9 15.3
2017-Sep-29 12:30N 44°32' W 087°59'0 0.0 1000.4 15.4
2017-Sep-29 12:00N 44°32' W 087°59'0 0.0 1000.0 15.6
2017-Sep-29 11:30N 44°32' W 087°59'0 0.0 999.5 15.8
2017-Sep-29 11:00N 44°32' W 087°59'0 0.0 999.2 16.1
2017-Sep-29 10:30N 44°32' W 087°59'0 0.0 998.8 16.2
2017-Sep-29 10:00N 44°32' W 087°59'0 0.0 998.5 16.3
2017-Sep-29 09:30N 44°32' W 087°59'0 0.0 998.1 16.4
2017-Sep-29 09:00N 44°32' W 087°59'0 0.0 997.7 16.6
2017-Sep-29 08:30N 44°32' W 087°59'0 0.0 997.5 16.8
2017-Sep-29 08:00N 44°32' W 087°59'0 0.0 997.3 17.0
2017-Sep-29 07:30N 44°32' W 087°59'0 0.0 997.1 17.2
2017-Sep-29 07:00N 44°32' W 087°59'0 0.0 996.9 17.3
2017-Sep-29 06:30N 44°32' W 087°59'0 0.0 996.7 17.4
2017-Sep-29 06:00N 44°32' W 087°59'0 0.0 996.4 17.5
2017-Sep-29 05:30N 44°32' W 087°59'0 0.0 996.3 17.6
2017-Sep-29 05:00N 44°32' W 087°59'0 0.0 996.1 17.7
2017-Sep-29 04:00N 44°32' W 087°59'0 0.0 996.1 18.0
2017-Sep-29 03:30N 44°32' W 087°59'0 0.0 996.3 18.1
2017-Sep-29 03:00N 44°32' W 087°59'0 0.0 996.1 18.1
2017-Sep-29 02:30N 44°32' W 087°59'0 0.0 995.6 18.4
2017-Sep-29 02:00N 44°32' W 087°59'0 0.0 995.7 18.7
2017-Sep-29 01:30N 44°32' W 087°59'0 0.0 996.2 18.5
2017-Sep-29 01:00N 44°32' W 087°59'0 0.0 995.6 18.6
2017-Sep-29 00:30N 44°32' W 087°59'0 0.0 995.4 18.0
2017-Sep-29 00:00N 44°32' W 087°59'0 0.0 995.4 17.9
2017-Sep-28 23:30N 44°32' W 087°59'0 0.0 995.3 17.8
2017-Sep-28 23:00N 44°32' W 087°59'0 0.0 995.3 17.6
2017-Sep-28 22:30N 44°32' W 087°59'0 0.0 995.6 17.7
2017-Sep-28 22:00N 44°32' W 087°59'0 0.0 995.8 17.8
2017-Sep-28 21:30N 44°32' W 087°59'0 0.0 996.0 17.7
2017-Sep-28 21:00N 44°32' W 087°59'0 0.0 996.5 17.6
2017-Sep-28 20:30N 44°32' W 087°59'0 0.0 996.9 17.4
2017-Sep-28 20:00N 44°32' W 087°59'0 0.0 997.2 17.3
2017-Sep-28 19:30N 44°32' W 087°59'0 0.0 997.5 17.3
2017-Sep-28 19:00N 44°32' W 087°59'0 0.0 997.9 17.1
2017-Sep-28 18:30N 44°32' W 087°59'0 0.0 998.2 17.1
2017-Sep-28 18:00N 44°32' W 087°59'0 0.0 998.5 17.0
2017-Sep-28 17:30N 44°32' W 087°59'0 0.0 998.7 16.8
2017-Sep-28 17:00N 44°32' W 087°59'0 0.0 999.2 16.6
2017-Sep-28 16:30N 44°32' W 087°59'0 0.0 999.8 16.2
2017-Sep-28 16:00N 44°32' W 087°59'0 0.0 999.9 16.0
2017-Sep-28 15:30N 44°32' W 087°59'0 0.0 1000.2 15.9
2017-Sep-28 15:00N 44°32' W 087°59'0 0.0 1000.4 15.8
2017-Sep-28 14:30N 44°32' W 087°59'0 0.0 1000.3 15.8
2017-Sep-28 14:00N 44°32' W 087°59'0 0.0 1000.1 15.8
2017-Sep-28 13:30N 44°32' W 087°59'0 0.0 1000.3 15.8
2017-Sep-28 13:00N 44°32' W 087°59'0 0.0 1000.3 15.8
2017-Sep-28 12:30N 44°32' W 087°59'0 0.0 1000.3 15.8
2017-Sep-28 12:00N 44°32' W 087°59'0 0.0 1000.1 15.8
2017-Sep-28 11:30N 44°32' W 087°59'0 0.0 1000.1 15.9
2017-Sep-28 11:00N 44°32' W 087°59'0 0.0 1000.2 15.9
2017-Sep-28 10:30N 44°32' W 087°59'0 0.0 1000.2 16.0
2017-Sep-28 10:00N 44°32' W 087°59'0 0.0 1000.1 16.1
2017-Sep-28 09:30N 44°32' W 087°59'0 0.0 1000.2 16.2
2017-Sep-28 09:00N 44°32' W 087°59'0 0.0 1000.2 16.2
2017-Sep-28 08:30N 44°32' W 087°59'0 0.0 1000.1 16.4
2017-Sep-28 08:00N 44°32' W 087°59'0 0.0 1000.1 16.5
2017-Sep-28 07:30N 44°32' W 087°59'0 0.0 1000.1 16.6
2017-Sep-28 07:00N 44°32' W 087°59'0 0.0 1000.2 16.5
2017-Sep-28 06:30N 44°32' W 087°59'0 0.0
2017-Sep-28 06:00N 44°32' W 087°59'0 0.0 1000.0 16.6
2017-Sep-28 05:30N 44°32' W 087°59'0 0.0 1000.1 16.7
2017-Sep-28 05:00N 44°32' W 087°59'0 0.0 1000.2 16.9
2017-Sep-28 04:30N 44°32' W 087°59'0 0.0 1000.3 16.9
2017-Sep-28 04:00N 44°32' W 087°59'0 0.0 1000.2 16.9
2017-Sep-28 03:30N 44°32' W 087°59'0 0.0 1000.2 17.1
2017-Sep-28 03:00N 44°32' W 087°59'0 0.0 1000.2 17.2
2017-Sep-28 02:30N 44°32' W 087°59'0 0.0 1000.4 17.3
2017-Sep-28 02:00N 44°32' W 087°59'0 0.0 1000.3 17.3
2017-Sep-28 01:30N 44°32' W 087°59'0 0.0 1000.3 17.4
2017-Sep-28 01:00N 44°32' W 087°59'0 0.0 1000.3 17.5
2017-Sep-28 00:30N 44°32' W 087°59'0 0.0 1000.0 17.7
2017-Sep-28 00:00N 44°32' W 087°59'0 0.0 1000.0 17.7
2017-Sep-27 23:30N 44°32' W 087°59'0 0.0 999.9 17.8
2017-Sep-27 23:00N 44°32' W 087°59'0 0.0 999.5 17.9
2017-Sep-27 22:30N 44°32' W 087°59'0 0.0 999.0 18.1
2017-Sep-27 22:00N 44°32' W 087°59'0 0.0 998.8 18.2
2017-Sep-27 21:30N 44°32' W 087°59'0 0.0 998.5 18.4
2017-Sep-27 21:00N 44°32' W 087°59'0 0.0 998.5 18.6
2017-Sep-27 20:30N 44°32' W 087°59'0 0.0 998.5 18.7
2017-Sep-27 20:00N 44°32' W 087°59'0 0.0 998.5 18.7
2017-Sep-27 19:30N 44°32' W 087°59'0 0.0 998.5 18.9
2017-Sep-27 19:00N 44°32' W 087°59'0 0.0 998.2 19.0
2017-Sep-27 18:30N 44°32' W 087°59'0 0.0 998.1 18.9
2017-Sep-27 18:00N 44°32' W 087°59'0 0.0 998.5 19.0
2017-Sep-27 17:30N 44°32' W 087°59'0 0.0 998.5 19.0
2017-Sep-27 17:00N 44°32' W 087°59'0 0.0 998.2 18.9
2017-Sep-27 16:30N 44°32' W 087°59'0 0.0 998.3 18.8
2017-Sep-27 16:00N 44°32' W 087°59'0 0.0 998.5 18.5
2017-Sep-27 15:30N 44°32' W 087°59'0 0.0 998.1 18.5
2017-Sep-27 15:00N 44°32' W 087°59'0 0.0 998.0 18.6
2017-Sep-27 14:30N 44°32' W 087°59'0 0.0 998.0 18.7
2017-Sep-27 14:00N 44°32' W 087°59'0 0.0 997.6 18.7
2017-Sep-27 13:30N 44°32' W 087°59'0 0.0 997.4 18.7
2017-Sep-27 13:00N 44°32' W 087°59'0 0.0 997.3 18.8
2017-Sep-27 12:30N 44°32' W 087°59'0 0.0 997.1 18.9
2017-Sep-27 12:00N 44°32' W 087°59'0 0.0 996.8 19.1
2017-Sep-27 11:30N 44°32' W 087°59'0 0.0 996.7 19.2
2017-Sep-27 11:00N 44°32' W 087°59'0 0.0 996.8 19.4
2017-Sep-27 10:30N 44°32' W 087°59'0 0.0 996.4 19.5
2017-Sep-27 10:00N 44°32' W 087°59'0 0.0 996.3 19.6
2017-Sep-27 09:30N 44°32' W 087°59'0 0.0 996.0 19.7
2017-Sep-27 09:00N 44°32' W 087°59'0 0.0 995.7 19.9
2017-Sep-27 08:30N 44°32' W 087°59'0 0.0 995.2 19.9
2017-Sep-27 08:00N 44°32' W 087°59'0 0.0 994.9 20.1
2017-Sep-27 07:30N 44°32' W 087°59'0 0.0 995.0 20.3
2017-Sep-27 07:00N 44°32' W 087°59'0 0.0 995.2 20.5
2017-Sep-27 06:30N 44°32' W 087°59'0 0.0 995.0 20.6
2017-Sep-27 06:00N 44°32' W 087°59'0 0.0 994.6 20.9
2017-Sep-27 05:30N 44°32' W 087°59'0 0.0 994.2 21.1
2017-Sep-27 05:00N 44°32' W 087°59'0 0.0 994.2 21.2
2017-Sep-27 04:30N 44°32' W 087°59'0 0.0 994.0 21.4
2017-Sep-27 04:00N 44°32' W 087°59'0 0.0 993.9 21.6
2017-Sep-27 03:30N 44°32' W 087°59'0 0.0 993.8 21.8
2017-Sep-27 03:00N 44°32' W 087°59'0 0.0 993.6 22.1
2017-Sep-27 02:30N 44°32' W 087°59'0 0.0 993.5 22.4
2017-Sep-27 02:00N 44°32' W 087°59'0 0.0 993.2 22.8
2017-Sep-27 01:30N 44°32' W 087°59'0 0.0 992.7 23.1
2017-Sep-27 01:00N 44°32' W 087°59'0 0.0 992.2 23.3
2017-Sep-27 00:30N 44°32' W 087°59'0 0.0 991.8 23.4
2017-Sep-27 00:00N 44°32' W 087°59'0 0.0 991.5 23.6
2017-Sep-26 23:30N 44°32' W 087°59'0 0.0 991.4 23.7
2017-Sep-26 23:00N 44°32' W 087°59'0 0.0 991.4 23.7
2017-Sep-26 22:30N 44°32' W 087°59'0 0.0 991.4 23.6
2017-Sep-26 22:00N 44°32' W 087°59'0 0.0 991.0 23.5
2017-Sep-26 21:30N 44°32' W 087°59'0 0.0 990.8 23.3
2017-Sep-26 21:00N 44°32' W 087°59'0 0.0 990.6 23.1
2017-Sep-26 20:30N 44°32' W 087°59'0 0.0 990.7 23.0
2017-Sep-26 20:00N 44°32' W 087°59'0 0.0 990.9 22.9
2017-Sep-26 19:30N 44°32' W 087°59'0 0.0 991.0 22.9
2017-Sep-26 19:00N 44°32' W 087°59'0 0.0 991.1 22.8
2017-Sep-26 18:30N 44°32' W 087°59'0 0.0 991.4 22.7
2017-Sep-26 18:00N 44°32' W 087°59'0 0.0 991.8 22.5
2017-Sep-26 17:30N 44°32' W 087°59'0 0.0 991.9 22.3
2017-Sep-26 17:00N 44°32' W 087°59'0 0.0 992.1 22.1
2017-Sep-26 16:30N 44°32' W 087°59'0 0.0 992.1 21.9
2017-Sep-26 16:00N 44°32' W 087°59'0 0.0 992.1 21.7
2017-Sep-26 15:30N 44°32' W 087°59'0 0.0 992.3 21.5
2017-Sep-26 15:00N 44°32' W 087°59'0 0.0 991.8 21.5
2017-Sep-26 14:30N 44°32' W 087°59'0 0.0 991.7 21.5
2017-Sep-26 14:00N 44°32' W 087°59'0 0.0 992.1 21.5
2017-Sep-26 13:30N 44°32' W 087°59'0 0.0 992.4 21.5
2017-Sep-26 13:00N 44°32' W 087°59'0 0.0 992.3 21.5
2017-Sep-26 12:30N 44°32' W 087°59'0 0.0 992.1 21.5
2017-Sep-26 12:00N 44°32' W 087°59'0 0.0 992.0 21.6
2017-Sep-26 11:30N 44°32' W 087°59'0 0.0 991.8 21.6
2017-Sep-26 11:00N 44°32' W 087°59'0 0.0 991.9 21.8
2017-Sep-26 10:30N 44°32' W 087°59'0 0.0 992.1 21.8
2017-Sep-26 10:00N 44°32' W 087°59'0 0.0 992.1 21.9
2017-Sep-26 09:30N 44°32' W 087°59'0 0.0 992.1 22.0
2017-Sep-26 09:00N 44°32' W 087°59'0 0.0 992.2 22.1
2017-Sep-26 08:30N 44°32' W 087°59'0 0.0 992.5 22.2
2017-Sep-26 08:00N 44°32' W 087°59'0 0.0 992.7 22.3
2017-Sep-26 07:30N 44°32' W 087°59'0 0.0 992.8 22.4
2017-Sep-26 07:00N 44°32' W 087°59'0 0.0 992.7 22.5
2017-Sep-26 06:30N 44°32' W 087°59'0 0.0 992.6 22.6
2017-Sep-26 06:00N 44°32' W 087°59'0 0.0 992.4 22.7
2017-Sep-26 05:30N 44°32' W 087°59'0 0.0 992.5 22.8
2017-Sep-26 05:00N 44°32' W 087°59'0 0.0 992.5 22.9
2017-Sep-26 04:30N 44°32' W 087°59'0 0.0 992.6 23.0
2017-Sep-26 04:00N 44°32' W 087°59'0 0.0 992.5 23.1
2017-Sep-26 03:30N 44°32' W 087°59'0 0.0 992.7 23.2
2017-Sep-26 03:00N 44°32' W 087°59'0 0.0 992.3 23.4
2017-Sep-26 02:30N 44°32' W 087°59'0 0.0 992.2 23.5
2017-Sep-26 02:00N 44°32' W 087°59'0 0.0 992.3 23.9
2017-Sep-26 01:30N 44°32' W 087°59'0 0.0 992.2 24.0
2017-Sep-26 01:00N 44°32' W 087°59'0 0.0 992.2 24.2
2017-Sep-26 00:30N 44°32' W 087°59'0 0.0 991.8 24.3
2017-Sep-26 00:00N 44°32' W 087°59'0 0.0 991.7 24.5
2017-Sep-25 23:30N 44°32' W 087°59'0 0.0 991.7 24.7
2017-Sep-25 23:00N 44°32' W 087°59'0 0.0 991.7 24.8
2017-Sep-25 22:30N 44°32' W 087°59'0 0.0 991.5 24.9
2017-Sep-25 22:00N 44°32' W 087°59'0 0.0 991.6 24.9
2017-Sep-25 21:30N 44°32' W 087°59'0 0.0 991.6 24.8
2017-Sep-25 21:00N 44°32' W 087°59'0 0.0 991.6 24.5
2017-Sep-25 20:30N 44°32' W 087°59'0 0.0 991.8 23.8
2017-Sep-25 20:00N 44°32' W 087°59'0 0.0 992.0 23.5
2017-Sep-25 19:30N 44°32' W 087°59'0 0.0 992.3 23.0
2017-Sep-25 19:00N 44°32' W 087°59'0 0.0 992.8 22.4
2017-Sep-25 18:30N 44°32' W 087°59'0 0.0 993.1 22.0
2017-Sep-25 18:00N 44°32' W 087°59'0 0.0 993.4 21.9
2017-Sep-25 17:30N 44°32' W 087°59'0 0.0 993.8 21.8
2017-Sep-25 17:00N 44°32' W 087°59'0 0.0 993.9 21.8
2017-Sep-25 16:30N 44°32' W 087°59'0 0.0 994.2 21.6
2017-Sep-25 16:00N 44°32' W 087°59'0 0.0 994.2 21.6
2017-Sep-25 15:30N 44°32' W 087°59'0 0.0 994.4 21.5
2017-Sep-25 15:00N 44°32' W 087°59'0 0.0 994.5 21.4
2017-Sep-25 14:30N 44°32' W 087°59'0 0.0 994.5 21.3
2017-Sep-25 14:00N 44°32' W 087°59'0 0.0 994.5 21.3
2017-Sep-25 13:30N 44°32' W 087°59'0 0.0 994.5 21.3
2017-Sep-25 13:00N 44°32' W 087°59'0 0.0 994.5 21.3
2017-Sep-25 12:30N 44°32' W 087°59'0 0.0 994.3 21.4
2017-Sep-25 12:00N 44°32' W 087°59'0 0.0 994.2 21.5
2017-Sep-25 11:30N 44°32' W 087°59'0 0.0 994.1 21.5
2017-Sep-25 11:00N 44°32' W 087°59'0 0.0 993.9 21.6
2017-Sep-25 10:30N 44°32' W 087°59'0 0.0 993.8 21.7
2017-Sep-25 10:00N 44°32' W 087°59'0 0.0 993.7 21.8
2017-Sep-25 09:30N 44°32' W 087°59'0 0.0 993.8 22.0
2017-Sep-25 09:00N 44°32' W 087°59'0 0.0 993.8 22.1
2017-Sep-25 08:30N 44°32' W 087°59'0 0.0 993.8 22.2
2017-Sep-25 08:00N 44°32' W 087°59'0 0.0 993.9 22.3
2017-Sep-25 07:30N 44°32' W 087°59'0 0.0 994.1 22.4
2017-Sep-25 07:00N 44°32' W 087°59'0 0.0 994.1 22.5
2017-Sep-25 06:30N 44°32' W 087°59'0 0.0 994.0 22.6
2017-Sep-25 06:00N 44°32' W 087°59'0 0.0 994.0 22.7
2017-Sep-25 05:30N 44°32' W 087°59'0 0.0 994.1 22.8
2017-Sep-25 05:00N 44°32' W 087°59'0 0.0 994.1 22.9
2017-Sep-25 04:30N 44°32' W 087°59'0 0.0 994.2 23.0
2017-Sep-25 04:00N 44°32' W 087°59'0 0.0 994.3 23.1
2017-Sep-25 03:30N 44°32' W 087°59'0 0.0 994.2 23.3
2017-Sep-25 03:00N 44°32' W 087°59'0 0.0 994.2 23.4
2017-Sep-25 02:30N 44°32' W 087°59'0 0.0 994.3 23.5
2017-Sep-25 02:00N 44°32' W 087°59'0 0.0 994.4 23.7
2017-Sep-25 01:30N 44°32' W 087°59'0 0.0 994.4 23.8
2017-Sep-25 01:00N 44°32' W 087°59'0 0.0 994.5 23.9
2017-Sep-25 00:30N 44°32' W 087°59'0 0.0 994.5 23.9
2017-Sep-25 00:00N 44°32' W 087°59'0 0.0 994.4 24.0
2017-Sep-24 23:30N 44°32' W 087°59'0 0.0 994.4 24.0
2017-Sep-24 23:00N 44°32' W 087°59'0 0.0 994.5 24.0
2017-Sep-24 22:30N 44°32' W 087°59'0 0.0 994.4 24.0
2017-Sep-24 22:00N 44°32' W 087°59'0 0.0 994.3 24.0
2017-Sep-24 21:30N 44°32' W 087°59'0 0.0 994.2 24.1
2017-Sep-24 21:00N 44°32' W 087°59'0 0.0 994.3 24.3
2017-Sep-24 20:30N 44°32' W 087°59'0 0.0 994.5 24.4
2017-Sep-24 20:00N 44°32' W 087°59'0 0.0 994.9 24.3
2017-Sep-24 19:30N 44°32' W 087°59'0 0.0 995.1 24.0
2017-Sep-24 19:00N 44°32' W 087°59'0 0.0 995.3 23.4
2017-Sep-24 18:30N 44°32' W 087°59'0 0.0 995.6 23.1
2017-Sep-24 18:00N 44°32' W 087°59'0 0.0 995.9 22.8
2017-Sep-24 17:30N 44°32' W 087°59'0 0.0 996.3 22.6
2017-Sep-24 17:00N 44°32' W 087°59'0 0.0 996.4 22.4
2017-Sep-24 16:30N 44°32' W 087°59'0 0.0 996.7 22.3
2017-Sep-24 16:00N 44°32' W 087°59'0 0.0 996.8 22.2
2017-Sep-24 15:30N 44°32' W 087°59'0 0.0 996.9 22.2
2017-Sep-24 15:00N 44°32' W 087°59'0 0.0 997.1 22.2
2017-Sep-24 14:30N 44°32' W 087°59'0 0.0 997.1 22.2
2017-Sep-24 14:00N 44°32' W 087°59'0 0.0 997.2 22.1
2017-Sep-24 13:30N 44°32' W 087°59'0 0.0 997.2 22.1
2017-Sep-24 13:00N 44°32' W 087°59'0 0.0 997.1 22.1
2017-Sep-24 12:30N 44°32' W 087°59'0 0.0 997.0 22.2
2017-Sep-24 12:00N 44°32' W 087°59'0 0.0 997.0 22.2
2017-Sep-24 11:30N 44°32' W 087°59'0 0.0 996.9 22.3
2017-Sep-24 11:00N 44°32' W 087°59'0 0.0 996.8 22.3
2017-Sep-24 10:30N 44°32' W 087°59'0 0.0 996.8 22.4
2017-Sep-24 10:00N 44°32' W 087°59'0 0.0 996.8 22.5
2017-Sep-24 09:30N 44°32' W 087°59'0 0.0 996.8 22.5
2017-Sep-24 09:00N 44°32' W 087°59'0 0.0 996.7 22.6
2017-Sep-24 08:30N 44°32' W 087°59'0 0.0 996.9 22.7
2017-Sep-24 08:00N 44°32' W 087°59'0 0.0 996.9 22.8
2017-Sep-24 07:30N 44°32' W 087°59'0 0.0 996.6 22.9
2017-Sep-24 07:00N 44°32' W 087°59'0 0.0 996.6 23.0
2017-Sep-24 06:30N 44°32' W 087°59'0 0.0 996.6 23.1
2017-Sep-24 06:00N 44°32' W 087°59'0 0.0 996.6 23.3
2017-Sep-24 05:30N 44°32' W 087°59'0 0.0 996.6 23.4
2017-Sep-24 05:00N 44°32' W 087°59'0 0.0 996.6 23.6
2017-Sep-24 04:30N 44°32' W 087°59'0 0.0 996.4 23.7
2017-Sep-24 04:00N 44°32' W 087°59'0 0.0 996.3 23.7
2017-Sep-24 03:30N 44°32' W 087°59'0 0.0 996.1 23.8
2017-Sep-24 03:00N 44°32' W 087°59'0 0.0 995.9 23.9
2017-Sep-24 02:30N 44°32' W 087°59'0 0.0 995.9 24.0
2017-Sep-24 02:00N 44°32' W 087°59'0 0.0 995.8 24.0
2017-Sep-24 01:30N 44°32' W 087°59'0 0.0 995.8 24.1
2017-Sep-24 01:00N 44°32' W 087°59'0 0.0 995.7 24.2
2017-Sep-24 00:30N 44°32' W 087°59'0 0.0 995.6 24.2
2017-Sep-24 00:00N 44°32' W 087°59'0 0.0 995.5 24.2
2017-Sep-23 23:30N 44°32' W 087°59'0 0.0 995.5 24.1
2017-Sep-23 23:00N 44°32' W 087°59'0 0.0 995.4 23.8
2017-Sep-23 22:30N 44°32' W 087°59'0 0.0 995.3 23.3
2017-Sep-23 22:00N 44°32' W 087°59'0 0.0 995.3 23.1
2017-Sep-23 21:30N 44°32' W 087°59'0 0.0 995.3 22.8
2017-Sep-23 21:00N 44°32' W 087°59'0 0.0 995.3 22.9
2017-Sep-23 20:30N 44°32' W 087°59'0 0.0 995.6 23.2
2017-Sep-23 20:00N 44°32' W 087°59'0 0.0 995.8 23.3
2017-Sep-23 19:30N 44°32' W 087°59'0 0.0 996.0 23.6
2017-Sep-23 19:00N 44°32' W 087°59'0 0.0 996.2 23.7
2017-Sep-23 18:00N 44°32' W 087°59'0 0.0 996.7 23.6
2017-Sep-23 17:30N 44°32' W 087°59'0 0.0 996.9 23.5
2017-Sep-23 17:00N 44°32' W 087°59'0 0.0 996.9 23.0
2017-Sep-23 16:30N 44°32' W 087°59'0 0.0 997.1 22.6
2017-Sep-23 16:00N 44°32' W 087°59'0 0.0 997.0 22.5
2017-Sep-23 15:30N 44°32' W 087°59'0 0.0 997.1 22.2
2017-Sep-23 15:00N 44°32' W 087°59'0 0.0 996.8 22.1
2017-Sep-23 14:30N 44°32' W 087°59'0 0.0 996.6 22.0
2017-Sep-23 14:00N 44°32' W 087°59'0 0.0 996.5 21.8
2017-Sep-23 13:30N 44°32' W 087°59'0 0.0 996.4 21.7
2017-Sep-23 13:00N 44°32' W 087°59'0 0.0 996.2 21.7
2017-Sep-23 12:30N 44°32' W 087°59'0 0.0 996.1 21.8
2017-Sep-23 12:00N 44°32' W 087°59'0 0.0 995.9 21.8
2017-Sep-23 11:30N 44°32' W 087°59'0 0.0 995.8 21.9
2017-Sep-23 11:00N 44°32' W 087°59'0 0.0 995.5 21.9
2017-Sep-23 10:30N 44°32' W 087°59'0 0.0 995.3 22.0
2017-Sep-23 10:00N 44°32' W 087°59'0 0.0 995.0 22.2
2017-Sep-23 09:30N 44°32' W 087°59'0 0.0 995.0 22.4
2017-Sep-23 09:00N 44°32' W 087°59'0 0.0 994.4 22.6
2017-Sep-23 08:30N 44°32' W 087°59'0 0.0 994.1 22.7
2017-Sep-23 08:00N 44°32' W 087°59'0 0.0 994.2 22.8
2017-Sep-23 07:30N 44°32' W 087°59'0 0.0 994.0 22.7
2017-Sep-23 07:00N 44°32' W 087°59'0 0.0 994.1 22.6
2017-Sep-23 06:30N 44°32' W 087°59'0 0.0 994.0 22.5
2017-Sep-23 06:00N 44°32' W 087°59'0 0.0 994.0 22.5
2017-Sep-23 05:30N 44°32' W 087°59'0 0.0 994.1 22.6
2017-Sep-23 05:00N 44°32' W 087°59'0 0.0 994.2 22.8
2017-Sep-23 04:30N 44°32' W 087°59'0 0.0 994.4 23.1
2017-Sep-23 04:00N 44°32' W 087°59'0 0.0 994.4 23.3
2017-Sep-23 03:30N 44°32' W 087°59'0 0.0 994.5 23.4
2017-Sep-23 03:00N 44°32' W 087°59'0 0.0 994.1 23.4
2017-Sep-23 02:30N 44°32' W 087°59'0 0.0 994.0 23.4
2017-Sep-23 02:00N 44°32' W 087°59'0 0.0 994.1 23.5
2017-Sep-23 01:30N 44°32' W 087°59'0 0.0 994.1 23.6
2017-Sep-23 01:00N 44°32' W 087°59'0 0.0 994.0 23.7
2017-Sep-23 00:30N 44°32' W 087°59'0 0.0 994.1 23.8
2017-Sep-23 00:00N 44°32' W 087°59'0 0.0 994.2 24.0
2017-Sep-22 23:30N 44°32' W 087°59'0 0.0 994.3 24.3
2017-Sep-22 23:00N 44°32' W 087°59'0 0.0 994.6 24.6
2017-Sep-22 22:30N 44°32' W 087°59'0 0.0 995.1 24.7
2017-Sep-22 22:00N 44°32' W 087°59'0 0.0 995.5 24.8
2017-Sep-22 21:30N 44°32' W 087°59'0 0.0 995.3 23.6
2017-Sep-22 21:00N 44°32' W 087°59'0 0.0 994.7 23.1
2017-Sep-22 20:30N 44°32' W 087°59'0 0.0 994.4 22.9
2017-Sep-22 20:00N 44°32' W 087°59'0 0.0 994.4 22.8
2017-Sep-22 19:30N 44°32' W 087°59'0 0.0 994.3 22.5
2017-Sep-22 19:00N 44°32' W 087°59'0 0.0 994.3 22.3
2017-Sep-22 18:30N 44°32' W 087°59'0 0.0 994.3 22.3
2017-Sep-22 18:00N 44°32' W 087°59'0 0.0 994.5 22.2
2017-Sep-22 17:30N 44°32' W 087°59'0 0.0 994.9 22.2
2017-Sep-22 17:00N 44°32' W 087°59'0 0.0 994.7 22.2
2017-Sep-22 16:30N 44°32' W 087°59'0 0.0 994.7 22.3
2017-Sep-22 16:00N 44°32' W 087°59'0 0.0 994.8 22.3
2017-Sep-22 15:30N 44°32' W 087°59'0 0.0 995.1 22.3
2017-Sep-22 15:00N 44°32' W 087°59'0 0.0 995.1 22.1
2017-Sep-22 14:30N 44°32' W 087°59'0 0.0 995.2 21.9
2017-Sep-22 14:00N 44°32' W 087°59'0 0.0 995.1 21.6
2017-Sep-22 13:30N 44°32' W 087°59'0 0.0 994.8 21.4
2017-Sep-22 13:00N 44°32' W 087°59'0 0.0 994.7 21.3
2017-Sep-22 12:30N 44°32' W 087°59'0 0.0 994.8 21.3
2017-Sep-22 12:00N 44°32' W 087°59'0 0.0 995.1 21.3
2017-Sep-22 11:30N 44°32' W 087°59'0 0.0 995.2 21.4
2017-Sep-22 11:00N 44°32' W 087°59'0 0.0 995.1 21.4
2017-Sep-22 10:30N 44°32' W 087°59'0 0.0 994.9 21.5
2017-Sep-22 10:00N 44°32' W 087°59'0 0.0 994.9 21.5
2017-Sep-22 09:30N 44°32' W 087°59'0 0.0 994.7 21.6
2017-Sep-22 09:00N 44°32' W 087°59'0 0.0 994.5 21.7
2017-Sep-22 08:30N 44°32' W 087°59'0 0.0 994.4 21.7
2017-Sep-22 08:00N 44°32' W 087°59'0 0.0 994.5 21.8
2017-Sep-22 07:30N 44°32' W 087°59'0 0.0 994.6 21.8
2017-Sep-22 07:00N 44°32' W 087°59'0 0.0 994.8 21.9
2017-Sep-22 06:30N 44°32' W 087°59'0 0.0 994.9 22.0
2017-Sep-22 06:00N 44°32' W 087°59'0 0.0 994.8 22.1
2017-Sep-22 05:30N 44°32' W 087°59'0 0.0 994.8 22.2
2017-Sep-22 05:00N 44°32' W 087°59'0 0.0 994.8 22.3
2017-Sep-22 04:30N 44°32' W 087°59'0 0.0 994.7 22.3
2017-Sep-22 04:00N 44°32' W 087°59'0 0.0 994.6 22.4
2017-Sep-22 03:30N 44°32' W 087°59'0 0.0 994.7 22.4
2017-Sep-22 03:00N 44°32' W 087°59'0 0.0 994.8 22.5
2017-Sep-22 02:30N 44°32' W 087°59'0 0.0 994.9 22.5
2017-Sep-22 02:00N 44°32' W 087°59'0 0.0 994.9 22.6
2017-Sep-22 01:30N 44°32' W 087°59'0 0.0 994.8 22.8
2017-Sep-22 01:00N 44°32' W 087°59'0 0.0 994.7 22.9
2017-Sep-22 00:30N 44°32' W 087°59'0 0.0 994.3 22.9
2017-Sep-22 00:00N 44°32' W 087°59'0 0.0 994.2 23.0
2017-Sep-21 23:30N 44°32' W 087°59'0 0.0 994.2 23.1
2017-Sep-21 23:00N 44°32' W 087°59'0 0.0 994.2 23.1
2017-Sep-21 22:30N 44°32' W 087°59'0 0.0 994.3 23.1
2017-Sep-21 22:00N 44°32' W 087°59'0 0.0 994.4 23.0
2017-Sep-21 21:30N 44°32' W 087°59'0 0.0 994.6 22.9
2017-Sep-21 21:00N 44°32' W 087°59'0 0.0 994.6 22.9
2017-Sep-21 20:30N 44°32' W 087°59'0 0.0 994.8 22.9
2017-Sep-21 20:00N 44°32' W 087°59'0 0.0 994.9 22.7
2017-Sep-21 19:30N 44°32' W 087°59'0 0.0 995.1 22.4
2017-Sep-21 19:00N 44°32' W 087°59'0 0.0 995.2 22.0
2017-Sep-21 18:30N 44°32' W 087°59'0 0.0 995.6 21.6
2017-Sep-21 18:00N 44°32' W 087°59'0 0.0 995.6 21.5
2017-Sep-21 17:30N 44°32' W 087°59'0 0.0 995.9 21.4
2017-Sep-21 17:00N 44°32' W 087°59'0 0.0 996.2 21.4
2017-Sep-21 16:30N 44°32' W 087°59'0 0.0 996.2 21.4
2017-Sep-21 16:00N 44°32' W 087°59'0 0.0 996.2 21.3
2017-Sep-21 15:30N 44°32' W 087°59'0 0.0 996.1 21.3
2017-Sep-21 15:00N 44°32' W 087°59'0 0.0 996.1 21.2
2017-Sep-21 14:30N 44°32' W 087°59'0 0.0 996.0 21.1
2017-Sep-21 14:00N 44°32' W 087°59'0 0.0 995.9 21.1
2017-Sep-21 13:30N 44°32' W 087°59'0 0.0 995.7 21.2
2017-Sep-21 13:00N 44°32' W 087°59'0 0.0 995.6 21.2
2017-Sep-21 12:30N 44°32' W 087°59'0 0.0 995.4 21.2
2017-Sep-21 12:00N 44°32' W 087°59'0 0.0 995.2 21.3
2017-Sep-21 11:30N 44°32' W 087°59'0 0.0 994.8 21.3
2017-Sep-21 11:00N 44°32' W 087°59'0 0.0 994.2 21.3
2017-Sep-21 10:30N 44°32' W 087°59'0 0.0 994.3 21.4
2017-Sep-21 10:00N 44°32' W 087°59'0 0.0 993.5 21.4
2017-Sep-21 09:30N 44°32' W 087°59'0 0.0 993.6 21.5
2017-Sep-21 09:00N 44°32' W 087°59'0 0.0 992.8 21.5
2017-Sep-21 08:30N 44°32' W 087°59'0 0.0 992.3 21.6
2017-Sep-21 08:00N 44°32' W 087°59'0 0.0 992.1 21.7
2017-Sep-21 07:30N 44°32' W 087°59'0 0.0 992.6 21.8
2017-Sep-21 07:00N 44°32' W 087°59'0 0.0 992.9 22.0
2017-Sep-21 06:30N 44°32' W 087°59'0 0.0 992.8 22.1
2017-Sep-21 06:00N 44°32' W 087°59'0 0.0 991.9 22.2
2017-Sep-21 05:30N 44°32' W 087°59'0 0.0 991.9 22.4
2017-Sep-21 05:00N 44°32' W 087°59'0 0.0 992.1 22.5
2017-Sep-21 04:30N 44°32' W 087°59'0 0.0 991.2 22.6
2017-Sep-21 04:00N 44°32' W 087°59'0 0.0 991.3 22.7
2017-Sep-21 03:30N 44°32' W 087°59'0 0.0 990.4 22.8
2017-Sep-21 03:00N 44°32' W 087°59'0 0.0 990.3 22.9
2017-Sep-21 02:30N 44°32' W 087°59'0 0.0 990.4 22.9
2017-Sep-21 02:00N 44°32' W 087°59'0 0.0 990.8 23.0
2017-Sep-21 01:30N 44°32' W 087°59'0 0.0 990.0 22.9
2017-Sep-21 01:00N 44°32' W 087°59'0 0.0 989.6 23.2
2017-Sep-21 00:30N 44°32' W 087°59'0 0.0 988.9 23.2
2017-Sep-21 00:00N 44°32' W 087°59'0 0.0 988.2 23.3
2017-Sep-20 23:30N 44°32' W 087°59'0 0.0 988.4 23.4
2017-Sep-20 23:00N 44°32' W 087°59'0 0.0 988.4 23.5
2017-Sep-20 22:30N 44°32' W 087°59'0 0.0 988.6 23.6
2017-Sep-20 22:00N 44°32' W 087°59'0 0.0 988.7 23.5
2017-Sep-20 21:30N 44°32' W 087°59'0 0.0 988.4 21.8
2017-Sep-20 21:00N 44°32' W 087°59'0 0.0 987.8 20.8
2017-Sep-20 20:30N 44°32' W 087°59'0 0.0 988.1 20.5
2017-Sep-20 20:00N 44°32' W 087°59'0 0.0 988.1 20.4
2017-Sep-20 19:30N 44°32' W 087°59'0 0.0 988.1 20.5
2017-Sep-20 19:00N 44°32' W 087°59'0 0.0 988.5 20.4
2017-Sep-20 18:30N 44°32' W 087°59'0 0.0 988.8 20.3
2017-Sep-20 18:00N 44°32' W 087°59'0 0.0 989.0 20.2
2017-Sep-20 17:30N 44°32' W 087°59'0 0.0 990.0 20.1
2017-Sep-20 17:00N 44°32' W 087°59'0 0.0 990.6 20.0
2017-Sep-20 16:30N 44°32' W 087°59'0 0.0 990.9 19.9
2017-Sep-20 16:00N 44°32' W 087°59'0 0.0 991.4 19.7
2017-Sep-20 15:30N 44°32' W 087°59'0 0.0 991.3 19.5
2017-Sep-20 15:00N 44°32' W 087°59'0 0.0 990.6 19.3
2017-Sep-20 14:30N 44°32' W 087°59'0 0.0 991.0 19.1
2017-Sep-20 14:00N 44°32' W 087°59'0 0.0 990.8 19.0
2017-Sep-20 13:30N 44°32' W 087°59'0 0.0 990.8 18.8
2017-Sep-20 13:00N 44°32' W 087°59'0 0.0 991.0 18.8
2017-Sep-20 12:30N 44°32' W 087°59'0 0.0 991.0 18.7
2017-Sep-20 12:00N 44°32' W 087°59'0 0.0 991.3 18.7
2017-Sep-20 11:30N 44°32' W 087°59'0 0.0 991.0 18.7
2017-Sep-20 11:00N 44°32' W 087°59'0 0.0 991.3 18.7
2017-Sep-20 10:30N 44°32' W 087°59'0 0.0 991.0 18.8
2017-Sep-20 10:00N 44°32' W 087°59'0 0.0 991.6 18.8
2017-Sep-20 09:30N 44°32' W 087°59'0 0.0 992.0 18.9
2017-Sep-20 09:00N 44°32' W 087°59'0 0.0 992.2 19.0
2017-Sep-20 08:30N 44°32' W 087°59'0 0.0 992.2 19.1
2017-Sep-20 08:00N 44°32' W 087°59'0 0.0 992.5 19.2
2017-Sep-20 07:30N 44°32' W 087°59'0 0.0 992.3 19.3
2017-Sep-20 07:00N 44°32' W 087°59'0 0.0 992.2 19.4
2017-Sep-20 06:30N 44°32' W 087°59'0 0.0 992.2 19.5
2017-Sep-20 06:00N 44°32' W 087°59'0 0.0 991.8 19.6
2017-Sep-20 05:30N 44°32' W 087°59'0 0.0 991.7 19.6
2017-Sep-20 05:00N 44°32' W 087°59'0 0.0 992.2 19.7
2017-Sep-20 04:30N 44°32' W 087°59'0 0.0 992.5 19.7
2017-Sep-20 04:00N 44°32' W 087°59'0 0.0 992.7 19.8
2017-Sep-20 03:30N 44°32' W 087°59'0 0.0 992.8 19.8
2017-Sep-20 03:00N 44°32' W 087°59'0 0.0 992.9 19.9
2017-Sep-20 02:30N 44°32' W 087°59'0 0.0 993.0 20.0
2017-Sep-20 02:00N 44°32' W 087°59'0 0.0 993.1 20.1
2017-Sep-20 01:30N 44°32' W 087°59'0 0.0 993.1 20.2
2017-Sep-20 01:00N 44°32' W 087°59'0 0.0 992.9 20.3
2017-Sep-20 00:30N 44°32' W 087°59'0 0.0 992.8 20.3
2017-Sep-20 00:00N 44°32' W 087°59'0 0.0 992.8 20.4
2017-Sep-19 23:30N 44°32' W 087°59'0 0.0 992.7 20.5
2017-Sep-19 23:00N 44°32' W 087°59'0 0.0 992.7 20.5
2017-Sep-19 22:30N 44°32' W 087°59'0 0.0 992.8 20.6
2017-Sep-19 22:00N 44°32' W 087°59'0 0.0 992.9 20.6
2017-Sep-19 21:30N 44°32' W 087°59'0 0.0 993.1 20.6
2017-Sep-19 21:00N 44°32' W 087°59'0 0.0 993.3 20.5
2017-Sep-19 20:30N 44°32' W 087°59'0 0.0 993.4 20.3
2017-Sep-19 20:00N 44°32' W 087°59'0 0.0 993.8 19.9
2017-Sep-19 19:30N 44°32' W 087°59'0 0.0 994.0 19.5
2017-Sep-19 19:00N 44°32' W 087°59'0 0.0 994.1 18.7
2017-Sep-19 18:30N 44°32' W 087°59'0 0.0 994.4 18.5
2017-Sep-19 18:00N 44°32' W 087°59'0 0.0 994.7 18.4
2017-Sep-19 17:30N 44°32' W 087°59'0 0.0 994.9 18.3
2017-Sep-19 17:00N 44°32' W 087°59'   995.1 18.2
Track history (hours):
 
Tides and Currents Weather Stations Pressure Air Temp Water Temp Dewpoint Dewpoint Depression Visibility Wind Speed Wind Dir Waves Ship Positions

Drifting buoy 45509

Last reported at 2017-Sep-29 17:00 UTC. Time now 2017-Oct-17 04:06 UTC.
Position N 44°32' W 087°59'.
Warning: this ship's position is 17 days out of date.

Barometer 1003.2 mb
Water temperature 17.0 ° C

Date/timePositionNaut miles runAvg speedWind from/ knotsBaromVisibWave heightAir tempDewpointWater temp
2017-Sep-29 17:00N 44°32' W 087°59'0 0.0 1003.2 17.0
2017-Sep-29 16:30N 44°32' W 087°59'0 0.0 1003.0 16.6
2017-Sep-29 16:00N 44°32' W 087°59'0 0.0 1002.8 16.2
2017-Sep-29 15:30N 44°32' W 087°59'0 0.0 1002.6 16.0
2017-Sep-29 15:00N 44°32' W 087°59'0 0.0 1002.4 15.8
2017-Sep-29 14:30N 44°32' W 087°59'0 0.0 1002.1 15.6
2017-Sep-29 14:00N 44°32' W 087°59'0 0.0 1001.9 15.4
2017-Sep-29 13:30N 44°32' W 087°59'0 0.0 1001.4 15.3
2017-Sep-29 13:00N 44°32' W 087°59'0 0.0 1000.9 15.3
2017-Sep-29 12:30N 44°32' W 087°59'0 0.0 1000.4 15.4
2017-Sep-29 12:00N 44°32' W 087°59'0 0.0 1000.0 15.6
2017-Sep-29 11:30N 44°32' W 087°59'0 0.0 999.5 15.8
2017-Sep-29 11:00N 44°32' W 087°59'0 0.0 999.2 16.1
2017-Sep-29 10:30N 44°32' W 087°59'0 0.0 998.8 16.2
2017-Sep-29 10:00N 44°32' W 087°59'0 0.0 998.5 16.3
2017-Sep-29 09:30N 44°32' W 087°59'0 0.0 998.1 16.4
2017-Sep-29 09:00N 44°32' W 087°59'0 0.0 997.7 16.6
2017-Sep-29 08:30N 44°32' W 087°59'0 0.0 997.5 16.8
2017-Sep-29 08:00N 44°32' W 087°59'0 0.0 997.3 17.0
2017-Sep-29 07:30N 44°32' W 087°59'0 0.0 997.1 17.2
2017-Sep-29 07:00N 44°32' W 087°59'0 0.0 996.9 17.3
2017-Sep-29 06:30N 44°32' W 087°59'0 0.0 996.7 17.4
2017-Sep-29 06:00N 44°32' W 087°59'0 0.0 996.4 17.5
2017-Sep-29 05:30N 44°32' W 087°59'0 0.0 996.3 17.6
2017-Sep-29 05:00N 44°32' W 087°59'0 0.0 996.1 17.7
2017-Sep-29 04:00N 44°32' W 087°59'0 0.0 996.1 18.0
2017-Sep-29 03:30N 44°32' W 087°59'0 0.0 996.3 18.1
2017-Sep-29 03:00N 44°32' W 087°59'0 0.0 996.1 18.1
2017-Sep-29 02:30N 44°32' W 087°59'0 0.0 995.6 18.4
2017-Sep-29 02:00N 44°32' W 087°59'0 0.0 995.7 18.7
2017-Sep-29 01:30N 44°32' W 087°59'0 0.0 996.2 18.5
2017-Sep-29 01:00N 44°32' W 087°59'0 0.0 995.6 18.6
2017-Sep-29 00:30N 44°32' W 087°59'0 0.0 995.4 18.0
2017-Sep-29 00:00N 44°32' W 087°59'0 0.0 995.4 17.9
2017-Sep-28 23:30N 44°32' W 087°59'0 0.0 995.3 17.8
2017-Sep-28 23:00N 44°32' W 087°59'0 0.0 995.3 17.6
2017-Sep-28 22:30N 44°32' W 087°59'0 0.0 995.6 17.7
2017-Sep-28 22:00N 44°32' W 087°59'0 0.0 995.8 17.8
2017-Sep-28 21:30N 44°32' W 087°59'0 0.0 996.0 17.7
2017-Sep-28 21:00N 44°32' W 087°59'0 0.0 996.5 17.6
2017-Sep-28 20:30N 44°32' W 087°59'0 0.0 996.9 17.4
2017-Sep-28 20:00N 44°32' W 087°59'0 0.0 997.2 17.3
2017-Sep-28 19:30N 44°32' W 087°59'0 0.0 997.5 17.3
2017-Sep-28 19:00N 44°32' W 087°59'0 0.0 997.9 17.1
2017-Sep-28 18:30N 44°32' W 087°59'0 0.0 998.2 17.1
2017-Sep-28 18:00N 44°32' W 087°59'0 0.0 998.5 17.0
2017-Sep-28 17:30N 44°32' W 087°59'0 0.0 998.7 16.8
2017-Sep-28 17:00N 44°32' W 087°59'0 0.0 999.2 16.6
2017-Sep-28 16:30N 44°32' W 087°59'0 0.0 999.8 16.2
2017-Sep-28 16:00N 44°32' W 087°59'0 0.0 999.9 16.0
2017-Sep-28 15:30N 44°32' W 087°59'0 0.0 1000.2 15.9
2017-Sep-28 15:00N 44°32' W 087°59'0 0.0 1000.4 15.8
2017-Sep-28 14:30N 44°32' W 087°59'0 0.0 1000.3 15.8
2017-Sep-28 14:00N 44°32' W 087°59'0 0.0 1000.1 15.8
2017-Sep-28 13:30N 44°32' W 087°59'0 0.0 1000.3 15.8
2017-Sep-28 13:00N 44°32' W 087°59'0 0.0 1000.3 15.8
2017-Sep-28 12:30N 44°32' W 087°59'0 0.0 1000.3 15.8
2017-Sep-28 12:00N 44°32' W 087°59'0 0.0 1000.1 15.8
2017-Sep-28 11:30N 44°32' W 087°59'0 0.0 1000.1 15.9
2017-Sep-28 11:00N 44°32' W 087°59'0 0.0 1000.2 15.9
2017-Sep-28 10:30N 44°32' W 087°59'0 0.0 1000.2 16.0
2017-Sep-28 10:00N 44°32' W 087°59'0 0.0 1000.1 16.1
2017-Sep-28 09:30N 44°32' W 087°59'0 0.0 1000.2 16.2
2017-Sep-28 09:00N 44°32' W 087°59'0 0.0 1000.2 16.2
2017-Sep-28 08:30N 44°32' W 087°59'0 0.0 1000.1 16.4
2017-Sep-28 08:00N 44°32' W 087°59'0 0.0 1000.1 16.5
2017-Sep-28 07:30N 44°32' W 087°59'0 0.0 1000.1 16.6
2017-Sep-28 07:00N 44°32' W 087°59'0 0.0 1000.2 16.5
2017-Sep-28 06:30N 44°32' W 087°59'0 0.0
2017-Sep-28 06:00N 44°32' W 087°59'0 0.0 1000.0 16.6
2017-Sep-28 05:30N 44°32' W 087°59'0 0.0 1000.1 16.7
2017-Sep-28 05:00N 44°32' W 087°59'0 0.0 1000.2 16.9
2017-Sep-28 04:30N 44°32' W 087°59'0 0.0 1000.3 16.9
2017-Sep-28 04:00N 44°32' W 087°59'0 0.0 1000.2 16.9
2017-Sep-28 03:30N 44°32' W 087°59'0 0.0 1000.2 17.1
2017-Sep-28 03:00N 44°32' W 087°59'0 0.0 1000.2 17.2
2017-Sep-28 02:30N 44°32' W 087°59'0 0.0 1000.4 17.3
2017-Sep-28 02:00N 44°32' W 087°59'0 0.0 1000.3 17.3
2017-Sep-28 01:30N 44°32' W 087°59'0 0.0 1000.3 17.4
2017-Sep-28 01:00N 44°32' W 087°59'0 0.0 1000.3 17.5
2017-Sep-28 00:30N 44°32' W 087°59'0 0.0 1000.0 17.7
2017-Sep-28 00:00N 44°32' W 087°59'0 0.0 1000.0 17.7
2017-Sep-27 23:30N 44°32' W 087°59'0 0.0 999.9 17.8
2017-Sep-27 23:00N 44°32' W 087°59'0 0.0 999.5 17.9
2017-Sep-27 22:30N 44°32' W 087°59'0 0.0 999.0 18.1
2017-Sep-27 22:00N 44°32' W 087°59'0 0.0 998.8 18.2
2017-Sep-27 21:30N 44°32' W 087°59'0 0.0 998.5 18.4
2017-Sep-27 21:00N 44°32' W 087°59'0 0.0 998.5 18.6
2017-Sep-27 20:30N 44°32' W 087°59'0 0.0 998.5 18.7
2017-Sep-27 20:00N 44°32' W 087°59'0 0.0 998.5 18.7
2017-Sep-27 19:30N 44°32' W 087°59'0 0.0 998.5 18.9
2017-Sep-27 19:00N 44°32' W 087°59'0 0.0 998.2 19.0
2017-Sep-27 18:30N 44°32' W 087°59'0 0.0 998.1 18.9
2017-Sep-27 18:00N 44°32' W 087°59'0 0.0 998.5 19.0
2017-Sep-27 17:30N 44°32' W 087°59'0 0.0 998.5 19.0
2017-Sep-27 17:00N 44°32' W 087°59'0 0.0 998.2 18.9
2017-Sep-27 16:30N 44°32' W 087°59'0 0.0 998.3 18.8
2017-Sep-27 16:00N 44°32' W 087°59'0 0.0 998.5 18.5
2017-Sep-27 15:30N 44°32' W 087°59'0 0.0 998.1 18.5
2017-Sep-27 15:00N 44°32' W 087°59'0 0.0 998.0 18.6
2017-Sep-27 14:30N 44°32' W 087°59'0 0.0 998.0 18.7
2017-Sep-27 14:00N 44°32' W 087°59'0 0.0 997.6 18.7
2017-Sep-27 13:30N 44°32' W 087°59'0 0.0 997.4 18.7
2017-Sep-27 13:00N 44°32' W 087°59'0 0.0 997.3 18.8
2017-Sep-27 12:30N 44°32' W 087°59'0 0.0 997.1 18.9
2017-Sep-27 12:00N 44°32' W 087°59'0 0.0 996.8 19.1
2017-Sep-27 11:30N 44°32' W 087°59'0 0.0 996.7 19.2
2017-Sep-27 11:00N 44°32' W 087°59'0 0.0 996.8 19.4
2017-Sep-27 10:30N 44°32' W 087°59'0 0.0 996.4 19.5
2017-Sep-27 10:00N 44°32' W 087°59'0 0.0 996.3 19.6
2017-Sep-27 09:30N 44°32' W 087°59'0 0.0 996.0 19.7
2017-Sep-27 09:00N 44°32' W 087°59'0 0.0 995.7 19.9
2017-Sep-27 08:30N 44°32' W 087°59'0 0.0 995.2 19.9
2017-Sep-27 08:00N 44°32' W 087°59'0 0.0 994.9 20.1
2017-Sep-27 07:30N 44°32' W 087°59'0 0.0 995.0 20.3
2017-Sep-27 07:00N 44°32' W 087°59'0 0.0 995.2 20.5
2017-Sep-27 06:30N 44°32' W 087°59'0 0.0 995.0 20.6
2017-Sep-27 06:00N 44°32' W 087°59'0 0.0 994.6 20.9
2017-Sep-27 05:30N 44°32' W 087°59'0 0.0 994.2 21.1
2017-Sep-27 05:00N 44°32' W 087°59'0 0.0 994.2 21.2
2017-Sep-27 04:30N 44°32' W 087°59'0 0.0 994.0 21.4
2017-Sep-27 04:00N 44°32' W 087°59'0 0.0 993.9 21.6
2017-Sep-27 03:30N 44°32' W 087°59'0 0.0 993.8 21.8
2017-Sep-27 03:00N 44°32' W 087°59'0 0.0 993.6 22.1
2017-Sep-27 02:30N 44°32' W 087°59'0 0.0 993.5 22.4
2017-Sep-27 02:00N 44°32' W 087°59'0 0.0 993.2 22.8
2017-Sep-27 01:30N 44°32' W 087°59'0 0.0 992.7 23.1
2017-Sep-27 01:00N 44°32' W 087°59'0 0.0 992.2 23.3
2017-Sep-27 00:30N 44°32' W 087°59'0 0.0 991.8 23.4
2017-Sep-27 00:00N 44°32' W 087°59'0 0.0 991.5 23.6
2017-Sep-26 23:30N 44°32' W 087°59'0 0.0 991.4 23.7
2017-Sep-26 23:00N 44°32' W 087°59'0 0.0 991.4 23.7
2017-Sep-26 22:30N 44°32' W 087°59'0 0.0 991.4 23.6
2017-Sep-26 22:00N 44°32' W 087°59'0 0.0 991.0 23.5
2017-Sep-26 21:30N 44°32' W 087°59'0 0.0 990.8 23.3
2017-Sep-26 21:00N 44°32' W 087°59'0 0.0 990.6 23.1
2017-Sep-26 20:30N 44°32' W 087°59'0 0.0 990.7 23.0
2017-Sep-26 20:00N 44°32' W 087°59'0 0.0 990.9 22.9
2017-Sep-26 19:30N 44°32' W 087°59'0 0.0 991.0 22.9
2017-Sep-26 19:00N 44°32' W 087°59'0 0.0 991.1 22.8
2017-Sep-26 18:30N 44°32' W 087°59'0 0.0 991.4 22.7
2017-Sep-26 18:00N 44°32' W 087°59'0 0.0 991.8 22.5
2017-Sep-26 17:30N 44°32' W 087°59'0 0.0 991.9 22.3
2017-Sep-26 17:00N 44°32' W 087°59'0 0.0 992.1 22.1
2017-Sep-26 16:30N 44°32' W 087°59'0 0.0 992.1 21.9
2017-Sep-26 16:00N 44°32' W 087°59'0 0.0 992.1 21.7
2017-Sep-26 15:30N 44°32' W 087°59'0 0.0 992.3 21.5
2017-Sep-26 15:00N 44°32' W 087°59'0 0.0 991.8 21.5
2017-Sep-26 14:30N 44°32' W 087°59'0 0.0 991.7 21.5
2017-Sep-26 14:00N 44°32' W 087°59'0 0.0 992.1 21.5
2017-Sep-26 13:30N 44°32' W 087°59'0 0.0 992.4 21.5
2017-Sep-26 13:00N 44°32' W 087°59'0 0.0 992.3 21.5
2017-Sep-26 12:30N 44°32' W 087°59'0 0.0 992.1 21.5
2017-Sep-26 12:00N 44°32' W 087°59'0 0.0 992.0 21.6
2017-Sep-26 11:30N 44°32' W 087°59'0 0.0 991.8 21.6
2017-Sep-26 11:00N 44°32' W 087°59'0 0.0 991.9 21.8
2017-Sep-26 10:30N 44°32' W 087°59'0 0.0 992.1 21.8
2017-Sep-26 10:00N 44°32' W 087°59'0 0.0 992.1 21.9
2017-Sep-26 09:30N 44°32' W 087°59'0 0.0 992.1 22.0
2017-Sep-26 09:00N 44°32' W 087°59'0 0.0 992.2 22.1
2017-Sep-26 08:30N 44°32' W 087°59'0 0.0 992.5 22.2
2017-Sep-26 08:00N 44°32' W 087°59'0 0.0 992.7 22.3
2017-Sep-26 07:30N 44°32' W 087°59'0 0.0 992.8 22.4
2017-Sep-26 07:00N 44°32' W 087°59'0 0.0 992.7 22.5
2017-Sep-26 06:30N 44°32' W 087°59'0 0.0 992.6 22.6
2017-Sep-26 06:00N 44°32' W 087°59'0 0.0 992.4 22.7
2017-Sep-26 05:30N 44°32' W 087°59'0 0.0 992.5 22.8
2017-Sep-26 05:00N 44°32' W 087°59'0 0.0 992.5 22.9
2017-Sep-26 04:30N 44°32' W 087°59'0 0.0 992.6 23.0
2017-Sep-26 04:00N 44°32' W 087°59'0 0.0 992.5 23.1
2017-Sep-26 03:30N 44°32' W 087°59'0 0.0 992.7 23.2
2017-Sep-26 03:00N 44°32' W 087°59'0 0.0 992.3 23.4
2017-Sep-26 02:30N 44°32' W 087°59'0 0.0 992.2 23.5
2017-Sep-26 02:00N 44°32' W 087°59'0 0.0 992.3 23.9
2017-Sep-26 01:30N 44°32' W 087°59'0 0.0 992.2 24.0
2017-Sep-26 01:00N 44°32' W 087°59'0 0.0 992.2 24.2
2017-Sep-26 00:30N 44°32' W 087°59'0 0.0 991.8 24.3
2017-Sep-26 00:00N 44°32' W 087°59'0 0.0 991.7 24.5
2017-Sep-25 23:30N 44°32' W 087°59'0 0.0 991.7 24.7
2017-Sep-25 23:00N 44°32' W 087°59'0 0.0 991.7 24.8
2017-Sep-25 22:30N 44°32' W 087°59'0 0.0 991.5 24.9
2017-Sep-25 22:00N 44°32' W 087°59'0 0.0 991.6 24.9
2017-Sep-25 21:30N 44°32' W 087°59'0 0.0 991.6 24.8
2017-Sep-25 21:00N 44°32' W 087°59'0 0.0 991.6 24.5
2017-Sep-25 20:30N 44°32' W 087°59'0 0.0 991.8 23.8
2017-Sep-25 20:00N 44°32' W 087°59'0 0.0 992.0 23.5
2017-Sep-25 19:30N 44°32' W 087°59'0 0.0 992.3 23.0
2017-Sep-25 19:00N 44°32' W 087°59'0 0.0 992.8 22.4
2017-Sep-25 18:30N 44°32' W 087°59'0 0.0 993.1 22.0
2017-Sep-25 18:00N 44°32' W 087°59'0 0.0 993.4 21.9
2017-Sep-25 17:30N 44°32' W 087°59'0 0.0 993.8 21.8
2017-Sep-25 17:00N 44°32' W 087°59'0 0.0 993.9 21.8
2017-Sep-25 16:30N 44°32' W 087°59'0 0.0 994.2 21.6
2017-Sep-25 16:00N 44°32' W 087°59'0 0.0 994.2 21.6
2017-Sep-25 15:30N 44°32' W 087°59'0 0.0 994.4 21.5
2017-Sep-25 15:00N 44°32' W 087°59'0 0.0 994.5 21.4
2017-Sep-25 14:30N 44°32' W 087°59'0 0.0 994.5 21.3
2017-Sep-25 14:00N 44°32' W 087°59'0 0.0 994.5 21.3
2017-Sep-25 13:30N 44°32' W 087°59'0 0.0 994.5 21.3
2017-Sep-25 13:00N 44°32' W 087°59'0 0.0 994.5 21.3
2017-Sep-25 12:30N 44°32' W 087°59'0 0.0 994.3 21.4
2017-Sep-25 12:00N 44°32' W 087°59'0 0.0 994.2 21.5
2017-Sep-25 11:30N 44°32' W 087°59'0 0.0 994.1 21.5
2017-Sep-25 11:00N 44°32' W 087°59'0 0.0 993.9 21.6
2017-Sep-25 10:30N 44°32' W 087°59'0 0.0 993.8 21.7
2017-Sep-25 10:00N 44°32' W 087°59'0 0.0 993.7 21.8
2017-Sep-25 09:30N 44°32' W 087°59'0 0.0 993.8 22.0
2017-Sep-25 09:00N 44°32' W 087°59'0 0.0 993.8 22.1
2017-Sep-25 08:30N 44°32' W 087°59'0 0.0 993.8 22.2
2017-Sep-25 08:00N 44°32' W 087°59'0 0.0 993.9 22.3
2017-Sep-25 07:30N 44°32' W 087°59'0 0.0 994.1 22.4
2017-Sep-25 07:00N 44°32' W 087°59'0 0.0 994.1 22.5
2017-Sep-25 06:30N 44°32' W 087°59'0 0.0 994.0 22.6
2017-Sep-25 06:00N 44°32' W 087°59'0 0.0 994.0 22.7
2017-Sep-25 05:30N 44°32' W 087°59'0 0.0 994.1 22.8
2017-Sep-25 05:00N 44°32' W 087°59'0 0.0 994.1 22.9
2017-Sep-25 04:30N 44°32' W 087°59'0 0.0 994.2 23.0
2017-Sep-25 04:00N 44°32' W 087°59'0 0.0 994.3 23.1
2017-Sep-25 03:30N 44°32' W 087°59'0 0.0 994.2 23.3
2017-Sep-25 03:00N 44°32' W 087°59'0 0.0 994.2 23.4
2017-Sep-25 02:30N 44°32' W 087°59'0 0.0 994.3 23.5
2017-Sep-25 02:00N 44°32' W 087°59'0 0.0 994.4 23.7
2017-Sep-25 01:30N 44°32' W 087°59'0 0.0 994.4 23.8
2017-Sep-25 01:00N 44°32' W 087°59'0 0.0 994.5 23.9
2017-Sep-25 00:30N 44°32' W 087°59'0 0.0 994.5 23.9
2017-Sep-25 00:00N 44°32' W 087°59'0 0.0 994.4 24.0
2017-Sep-24 23:30N 44°32' W 087°59'0 0.0 994.4 24.0
2017-Sep-24 23:00N 44°32' W 087°59'0 0.0 994.5 24.0
2017-Sep-24 22:30N 44°32' W 087°59'0 0.0 994.4 24.0
2017-Sep-24 22:00N 44°32' W 087°59'0 0.0 994.3 24.0
2017-Sep-24 21:30N 44°32' W 087°59'0 0.0 994.2 24.1
2017-Sep-24 21:00N 44°32' W 087°59'0 0.0 994.3 24.3
2017-Sep-24 20:30N 44°32' W 087°59'0 0.0 994.5 24.4
2017-Sep-24 20:00N 44°32' W 087°59'0 0.0 994.9 24.3
2017-Sep-24 19:30N 44°32' W 087°59'0 0.0 995.1 24.0
2017-Sep-24 19:00N 44°32' W 087°59'0 0.0 995.3 23.4
2017-Sep-24 18:30N 44°32' W 087°59'0 0.0 995.6 23.1
2017-Sep-24 18:00N 44°32' W 087°59'0 0.0 995.9 22.8
2017-Sep-24 17:30N 44°32' W 087°59'0 0.0 996.3 22.6
2017-Sep-24 17:00N 44°32' W 087°59'0 0.0 996.4 22.4
2017-Sep-24 16:30N 44°32' W 087°59'0 0.0 996.7 22.3
2017-Sep-24 16:00N 44°32' W 087°59'0 0.0 996.8 22.2
2017-Sep-24 15:30N 44°32' W 087°59'0 0.0 996.9 22.2
2017-Sep-24 15:00N 44°32' W 087°59'0 0.0 997.1 22.2
2017-Sep-24 14:30N 44°32' W 087°59'0 0.0 997.1 22.2
2017-Sep-24 14:00N 44°32' W 087°59'0 0.0 997.2 22.1
2017-Sep-24 13:30N 44°32' W 087°59'0 0.0 997.2 22.1
2017-Sep-24 13:00N 44°32' W 087°59'0 0.0 997.1 22.1
2017-Sep-24 12:30N 44°32' W 087°59'0 0.0 997.0 22.2
2017-Sep-24 12:00N 44°32' W 087°59'0 0.0 997.0 22.2
2017-Sep-24 11:30N 44°32' W 087°59'0 0.0 996.9 22.3
2017-Sep-24 11:00N 44°32' W 087°59'0 0.0 996.8 22.3
2017-Sep-24 10:30N 44°32' W 087°59'0 0.0 996.8 22.4
2017-Sep-24 10:00N 44°32' W 087°59'0 0.0 996.8 22.5
2017-Sep-24 09:30N 44°32' W 087°59'0 0.0 996.8 22.5
2017-Sep-24 09:00N 44°32' W 087°59'0 0.0 996.7 22.6
2017-Sep-24 08:30N 44°32' W 087°59'0 0.0 996.9 22.7
2017-Sep-24 08:00N 44°32' W 087°59'0 0.0 996.9 22.8
2017-Sep-24 07:30N 44°32' W 087°59'0 0.0 996.6 22.9
2017-Sep-24 07:00N 44°32' W 087°59'0 0.0 996.6 23.0
2017-Sep-24 06:30N 44°32' W 087°59'0 0.0 996.6 23.1
2017-Sep-24 06:00N 44°32' W 087°59'0 0.0 996.6 23.3
2017-Sep-24 05:30N 44°32' W 087°59'0 0.0 996.6 23.4
2017-Sep-24 05:00N 44°32' W 087°59'0 0.0 996.6 23.6
2017-Sep-24 04:30N 44°32' W 087°59'0 0.0 996.4 23.7
2017-Sep-24 04:00N 44°32' W 087°59'0 0.0 996.3 23.7
2017-Sep-24 03:30N 44°32' W 087°59'0 0.0 996.1 23.8
2017-Sep-24 03:00N 44°32' W 087°59'0 0.0 995.9 23.9
2017-Sep-24 02:30N 44°32' W 087°59'0 0.0 995.9 24.0
2017-Sep-24 02:00N 44°32' W 087°59'0 0.0 995.8 24.0
2017-Sep-24 01:30N 44°32' W 087°59'0 0.0 995.8 24.1
2017-Sep-24 01:00N 44°32' W 087°59'0 0.0 995.7 24.2
2017-Sep-24 00:30N 44°32' W 087°59'0 0.0 995.6 24.2
2017-Sep-24 00:00N 44°32' W 087°59'0 0.0 995.5 24.2
2017-Sep-23 23:30N 44°32' W 087°59'0 0.0 995.5 24.1
2017-Sep-23 23:00N 44°32' W 087°59'0 0.0 995.4 23.8
2017-Sep-23 22:30N 44°32' W 087°59'0 0.0 995.3 23.3
2017-Sep-23 22:00N 44°32' W 087°59'0 0.0 995.3 23.1
2017-Sep-23 21:30N 44°32' W 087°59'0 0.0 995.3 22.8
2017-Sep-23 21:00N 44°32' W 087°59'0 0.0 995.3 22.9
2017-Sep-23 20:30N 44°32' W 087°59'0 0.0 995.6 23.2
2017-Sep-23 20:00N 44°32' W 087°59'0 0.0 995.8 23.3
2017-Sep-23 19:30N 44°32' W 087°59'0 0.0 996.0 23.6
2017-Sep-23 19:00N 44°32' W 087°59'0 0.0 996.2 23.7
2017-Sep-23 18:00N 44°32' W 087°59'0 0.0 996.7 23.6
2017-Sep-23 17:30N 44°32' W 087°59'0 0.0 996.9 23.5
2017-Sep-23 17:00N 44°32' W 087°59'0 0.0 996.9 23.0
2017-Sep-23 16:30N 44°32' W 087°59'0 0.0 997.1 22.6
2017-Sep-23 16:00N 44°32' W 087°59'0 0.0 997.0 22.5
2017-Sep-23 15:30N 44°32' W 087°59'0 0.0 997.1 22.2
2017-Sep-23 15:00N 44°32' W 087°59'0 0.0 996.8 22.1
2017-Sep-23 14:30N 44°32' W 087°59'0 0.0 996.6 22.0
2017-Sep-23 14:00N 44°32' W 087°59'0 0.0 996.5 21.8
2017-Sep-23 13:30N 44°32' W 087°59'0 0.0 996.4 21.7
2017-Sep-23 13:00N 44°32' W 087°59'0 0.0 996.2 21.7
2017-Sep-23 12:30N 44°32' W 087°59'0 0.0 996.1 21.8
2017-Sep-23 12:00N 44°32' W 087°59'0 0.0 995.9 21.8
2017-Sep-23 11:30N 44°32' W 087°59'0 0.0 995.8 21.9
2017-Sep-23 11:00N 44°32' W 087°59'0 0.0 995.5 21.9
2017-Sep-23 10:30N 44°32' W 087°59'0 0.0 995.3 22.0
2017-Sep-23 10:00N 44°32' W 087°59'0 0.0 995.0 22.2
2017-Sep-23 09:30N 44°32' W 087°59'0 0.0 995.0 22.4
2017-Sep-23 09:00N 44°32' W 087°59'0 0.0 994.4 22.6
2017-Sep-23 08:30N 44°32' W 087°59'0 0.0 994.1 22.7
2017-Sep-23 08:00N 44°32' W 087°59'0 0.0 994.2 22.8
2017-Sep-23 07:30N 44°32' W 087°59'0 0.0 994.0 22.7
2017-Sep-23 07:00N 44°32' W 087°59'0 0.0 994.1 22.6
2017-Sep-23 06:30N 44°32' W 087°59'0 0.0 994.0 22.5
2017-Sep-23 06:00N 44°32' W 087°59'0 0.0 994.0 22.5
2017-Sep-23 05:30N 44°32' W 087°59'0 0.0 994.1 22.6
2017-Sep-23 05:00N 44°32' W 087°59'0 0.0 994.2 22.8
2017-Sep-23 04:30N 44°32' W 087°59'0 0.0 994.4 23.1
2017-Sep-23 04:00N 44°32' W 087°59'0 0.0 994.4 23.3
2017-Sep-23 03:30N 44°32' W 087°59'0 0.0 994.5 23.4
2017-Sep-23 03:00N 44°32' W 087°59'0 0.0 994.1 23.4
2017-Sep-23 02:30N 44°32' W 087°59'0 0.0 994.0 23.4
2017-Sep-23 02:00N 44°32' W 087°59'0 0.0 994.1 23.5
2017-Sep-23 01:30N 44°32' W 087°59'0 0.0 994.1 23.6
2017-Sep-23 01:00N 44°32' W 087°59'0 0.0 994.0 23.7
2017-Sep-23 00:30N 44°32' W 087°59'0 0.0 994.1 23.8
2017-Sep-23 00:00N 44°32' W 087°59'0 0.0 994.2 24.0
2017-Sep-22 23:30N 44°32' W 087°59'0 0.0 994.3 24.3
2017-Sep-22 23:00N 44°32' W 087°59'0 0.0 994.6 24.6
2017-Sep-22 22:30N 44°32' W 087°59'0 0.0 995.1 24.7
2017-Sep-22 22:00N 44°32' W 087°59'0 0.0 995.5 24.8
2017-Sep-22 21:30N 44°32' W 087°59'0 0.0 995.3 23.6
2017-Sep-22 21:00N 44°32' W 087°59'0 0.0 994.7 23.1
2017-Sep-22 20:30N 44°32' W 087°59'0 0.0 994.4 22.9
2017-Sep-22 20:00N 44°32' W 087°59'0 0.0 994.4 22.8
2017-Sep-22 19:30N 44°32' W 087°59'0 0.0 994.3 22.5
2017-Sep-22 19:00N 44°32' W 087°59'0 0.0 994.3 22.3
2017-Sep-22 18:30N 44°32' W 087°59'0 0.0 994.3 22.3
2017-Sep-22 18:00N 44°32' W 087°59'0 0.0 994.5 22.2
2017-Sep-22 17:30N 44°32' W 087°59'0 0.0 994.9 22.2
2017-Sep-22 17:00N 44°32' W 087°59'0 0.0 994.7 22.2
2017-Sep-22 16:30N 44°32' W 087°59'0 0.0 994.7 22.3
2017-Sep-22 16:00N 44°32' W 087°59'0 0.0 994.8 22.3
2017-Sep-22 15:30N 44°32' W 087°59'0 0.0 995.1 22.3
2017-Sep-22 15:00N 44°32' W 087°59'0 0.0 995.1 22.1
2017-Sep-22 14:30N 44°32' W 087°59'0 0.0 995.2 21.9
2017-Sep-22 14:00N 44°32' W 087°59'0 0.0 995.1 21.6
2017-Sep-22 13:30N 44°32' W 087°59'0 0.0 994.8 21.4
2017-Sep-22 13:00N 44°32' W 087°59'0 0.0 994.7 21.3
2017-Sep-22 12:30N 44°32' W 087°59'0 0.0 994.8 21.3
2017-Sep-22 12:00N 44°32' W 087°59'0 0.0 995.1 21.3
2017-Sep-22 11:30N 44°32' W 087°59'0 0.0 995.2 21.4
2017-Sep-22 11:00N 44°32' W 087°59'0 0.0 995.1 21.4
2017-Sep-22 10:30N 44°32' W 087°59'0 0.0 994.9 21.5
2017-Sep-22 10:00N 44°32' W 087°59'0 0.0 994.9 21.5
2017-Sep-22 09:30N 44°32' W 087°59'0 0.0 994.7 21.6
2017-Sep-22 09:00N 44°32' W 087°59'0 0.0 994.5 21.7
2017-Sep-22 08:30N 44°32' W 087°59'0 0.0 994.4 21.7
2017-Sep-22 08:00N 44°32' W 087°59'0 0.0 994.5 21.8
2017-Sep-22 07:30N 44°32' W 087°59'0 0.0 994.6 21.8
2017-Sep-22 07:00N 44°32' W 087°59'0 0.0 994.8 21.9
2017-Sep-22 06:30N 44°32' W 087°59'0 0.0 994.9 22.0
2017-Sep-22 06:00N 44°32' W 087°59'0 0.0 994.8 22.1
2017-Sep-22 05:30N 44°32' W 087°59'0 0.0 994.8 22.2
2017-Sep-22 05:00N 44°32' W 087°59'0 0.0 994.8 22.3
2017-Sep-22 04:30N 44°32' W 087°59'0 0.0 994.7 22.3
2017-Sep-22 04:00N 44°32' W 087°59'0 0.0 994.6 22.4
2017-Sep-22 03:30N 44°32' W 087°59'0 0.0 994.7 22.4
2017-Sep-22 03:00N 44°32' W 087°59'0 0.0 994.8 22.5
2017-Sep-22 02:30N 44°32' W 087°59'0 0.0 994.9 22.5
2017-Sep-22 02:00N 44°32' W 087°59'0 0.0 994.9 22.6
2017-Sep-22 01:30N 44°32' W 087°59'0 0.0 994.8 22.8
2017-Sep-22 01:00N 44°32' W 087°59'0 0.0 994.7 22.9
2017-Sep-22 00:30N 44°32' W 087°59'0 0.0 994.3 22.9
2017-Sep-22 00:00N 44°32' W 087°59'0 0.0 994.2 23.0
2017-Sep-21 23:30N 44°32' W 087°59'0 0.0 994.2 23.1
2017-Sep-21 23:00N 44°32' W 087°59'0 0.0 994.2 23.1
2017-Sep-21 22:30N 44°32' W 087°59'0 0.0 994.3 23.1
2017-Sep-21 22:00N 44°32' W 087°59'0 0.0 994.4 23.0
2017-Sep-21 21:30N 44°32' W 087°59'0 0.0 994.6 22.9
2017-Sep-21 21:00N 44°32' W 087°59'0 0.0 994.6 22.9
2017-Sep-21 20:30N 44°32' W 087°59'0 0.0 994.8 22.9
2017-Sep-21 20:00N 44°32' W 087°59'0 0.0 994.9 22.7
2017-Sep-21 19:30N 44°32' W 087°59'0 0.0 995.1 22.4
2017-Sep-21 19:00N 44°32' W 087°59'0 0.0 995.2 22.0
2017-Sep-21 18:30N 44°32' W 087°59'0 0.0 995.6 21.6
2017-Sep-21 18:00N 44°32' W 087°59'0 0.0 995.6 21.5
2017-Sep-21 17:30N 44°32' W 087°59'0 0.0 995.9 21.4
2017-Sep-21 17:00N 44°32' W 087°59'0 0.0 996.2 21.4
2017-Sep-21 16:30N 44°32' W 087°59'0 0.0 996.2 21.4
2017-Sep-21 16:00N 44°32' W 087°59'0 0.0 996.2 21.3
2017-Sep-21 15:30N 44°32' W 087°59'0 0.0 996.1 21.3
2017-Sep-21 15:00N 44°32' W 087°59'0 0.0 996.1 21.2
2017-Sep-21 14:30N 44°32' W 087°59'0 0.0 996.0 21.1
2017-Sep-21 14:00N 44°32' W 087°59'0 0.0 995.9 21.1
2017-Sep-21 13:30N 44°32' W 087°59'0 0.0 995.7 21.2
2017-Sep-21 13:00N 44°32' W 087°59'0 0.0 995.6 21.2
2017-Sep-21 12:30N 44°32' W 087°59'0 0.0 995.4 21.2
2017-Sep-21 12:00N 44°32' W 087°59'0 0.0 995.2 21.3
2017-Sep-21 11:30N 44°32' W 087°59'0 0.0 994.8 21.3
2017-Sep-21 11:00N 44°32' W 087°59'0 0.0 994.2 21.3
2017-Sep-21 10:30N 44°32' W 087°59'0 0.0 994.3 21.4
2017-Sep-21 10:00N 44°32' W 087°59'0 0.0 993.5 21.4
2017-Sep-21 09:30N 44°32' W 087°59'0 0.0 993.6 21.5
2017-Sep-21 09:00N 44°32' W 087°59'0 0.0 992.8 21.5
2017-Sep-21 08:30N 44°32' W 087°59'0 0.0 992.3 21.6
2017-Sep-21 08:00N 44°32' W 087°59'0 0.0 992.1 21.7
2017-Sep-21 07:30N 44°32' W 087°59'0 0.0 992.6 21.8
2017-Sep-21 07:00N 44°32' W 087°59'0 0.0 992.9 22.0
2017-Sep-21 06:30N 44°32' W 087°59'0 0.0 992.8 22.1
2017-Sep-21 06:00N 44°32' W 087°59'0 0.0 991.9 22.2
2017-Sep-21 05:30N 44°32' W 087°59'0 0.0 991.9 22.4
2017-Sep-21 05:00N 44°32' W 087°59'0 0.0 992.1 22.5
2017-Sep-21 04:30N 44°32' W 087°59'0 0.0 991.2 22.6
2017-Sep-21 04:00N 44°32' W 087°59'0 0.0 991.3 22.7
2017-Sep-21 03:30N 44°32' W 087°59'0 0.0 990.4 22.8
2017-Sep-21 03:00N 44°32' W 087°59'0 0.0 990.3 22.9
2017-Sep-21 02:30N 44°32' W 087°59'0 0.0 990.4 22.9
2017-Sep-21 02:00N 44°32' W 087°59'0 0.0 990.8 23.0
2017-Sep-21 01:30N 44°32' W 087°59'0 0.0 990.0 22.9
2017-Sep-21 01:00N 44°32' W 087°59'0 0.0 989.6 23.2
2017-Sep-21 00:30N 44°32' W 087°59'0 0.0 988.9 23.2
2017-Sep-21 00:00N 44°32' W 087°59'0 0.0 988.2 23.3
2017-Sep-20 23:30N 44°32' W 087°59'0 0.0 988.4 23.4
2017-Sep-20 23:00N 44°32' W 087°59'0 0.0 988.4 23.5
2017-Sep-20 22:30N 44°32' W 087°59'0 0.0 988.6 23.6
2017-Sep-20 22:00N 44°32' W 087°59'0 0.0 988.7 23.5
2017-Sep-20 21:30N 44°32' W 087°59'0 0.0 988.4 21.8
2017-Sep-20 21:00N 44°32' W 087°59'0 0.0 987.8 20.8
2017-Sep-20 20:30N 44°32' W 087°59'0 0.0 988.1 20.5
2017-Sep-20 20:00N 44°32' W 087°59'0 0.0 988.1 20.4
2017-Sep-20 19:30N 44°32' W 087°59'0 0.0 988.1 20.5
2017-Sep-20 19:00N 44°32' W 087°59'0 0.0 988.5 20.4
2017-Sep-20 18:30N 44°32' W 087°59'0 0.0 988.8 20.3
2017-Sep-20 18:00N 44°32' W 087°59'0 0.0 989.0 20.2
2017-Sep-20 17:30N 44°32' W 087°59'0 0.0 990.0 20.1
2017-Sep-20 17:00N 44°32' W 087°59'0 0.0 990.6 20.0
2017-Sep-20 16:30N 44°32' W 087°59'0 0.0 990.9 19.9
2017-Sep-20 16:00N 44°32' W 087°59'0 0.0 991.4 19.7
2017-Sep-20 15:30N 44°32' W 087°59'0 0.0 991.3 19.5
2017-Sep-20 15:00N 44°32' W 087°59'0 0.0 990.6 19.3
2017-Sep-20 14:30N 44°32' W 087°59'0 0.0 991.0 19.1
2017-Sep-20 14:00N 44°32' W 087°59'0 0.0 990.8 19.0
2017-Sep-20 13:30N 44°32' W 087°59'0 0.0 990.8 18.8
2017-Sep-20 13:00N 44°32' W 087°59'0 0.0 991.0 18.8
2017-Sep-20 12:30N 44°32' W 087°59'0 0.0 991.0 18.7
2017-Sep-20 12:00N 44°32' W 087°59'0 0.0 991.3 18.7
2017-Sep-20 11:30N 44°32' W 087°59'0 0.0 991.0 18.7
2017-Sep-20 11:00N 44°32' W 087°59'0 0.0 991.3 18.7
2017-Sep-20 10:30N 44°32' W 087°59'0 0.0 991.0 18.8
2017-Sep-20 10:00N 44°32' W 087°59'0 0.0 991.6 18.8
2017-Sep-20 09:30N 44°32' W 087°59'0 0.0 992.0 18.9
2017-Sep-20 09:00N 44°32' W 087°59'0 0.0 992.2 19.0
2017-Sep-20 08:30N 44°32' W 087°59'0 0.0 992.2 19.1
2017-Sep-20 08:00N 44°32' W 087°59'0 0.0 992.5 19.2
2017-Sep-20 07:30N 44°32' W 087°59'0 0.0 992.3 19.3
2017-Sep-20 07:00N 44°32' W 087°59'0 0.0 992.2 19.4
2017-Sep-20 06:30N 44°32' W 087°59'0 0.0 992.2 19.5
2017-Sep-20 06:00N 44°32' W 087°59'0 0.0 991.8 19.6
2017-Sep-20 05:30N 44°32' W 087°59'0 0.0 991.7 19.6
2017-Sep-20 05:00N 44°32' W 087°59'0 0.0 992.2 19.7
2017-Sep-20 04:30N 44°32' W 087°59'0 0.0 992.5 19.7
2017-Sep-20 04:00N 44°32' W 087°59'0 0.0 992.7 19.8
2017-Sep-20 03:30N 44°32' W 087°59'0 0.0 992.8 19.8
2017-Sep-20 03:00N 44°32' W 087°59'0 0.0 992.9 19.9
2017-Sep-20 02:30N 44°32' W 087°59'0 0.0 993.0 20.0
2017-Sep-20 02:00N 44°32' W 087°59'0 0.0 993.1 20.1
2017-Sep-20 01:30N 44°32' W 087°59'0 0.0 993.1 20.2
2017-Sep-20 01:00N 44°32' W 087°59'0 0.0 992.9 20.3
2017-Sep-20 00:30N 44°32' W 087°59'0 0.0 992.8 20.3
2017-Sep-20 00:00N 44°32' W 087°59'0 0.0 992.8 20.4
2017-Sep-19 23:30N 44°32' W 087°59'0 0.0 992.7 20.5
2017-Sep-19 23:00N 44°32' W 087°59'0 0.0 992.7 20.5
2017-Sep-19 22:30N 44°32' W 087°59'0 0.0 992.8 20.6
2017-Sep-19 22:00N 44°32' W 087°59'0 0.0 992.9 20.6
2017-Sep-19 21:30N 44°32' W 087°59'0 0.0 993.1 20.6
2017-Sep-19 21:00N 44°32' W 087°59'0 0.0 993.3 20.5
2017-Sep-19 20:30N 44°32' W 087°59'0 0.0 993.4 20.3
2017-Sep-19 20:00N 44°32' W 087°59'0 0.0 993.8 19.9
2017-Sep-19 19:30N 44°32' W 087°59'0 0.0 994.0 19.5
2017-Sep-19 19:00N 44°32' W 087°59'0 0.0 994.1 18.7
2017-Sep-19 18:30N 44°32' W 087°59'0 0.0 994.4 18.5
2017-Sep-19 18:00N 44°32' W 087°59'0 0.0 994.7 18.4
2017-Sep-19 17:30N 44°32' W 087°59'0 0.0 994.9 18.3
2017-Sep-19 17:00N 44°32' W 087°59'   995.1 18.2

Dump ship's entire track history